sensor_id;sensor_type;location;lat;lon;timestamp;P1;durP1;ratioP1;P2;durP2;ratioP2
70967;SDS011;58629;48.808;8.820;2022-12-07T00:01:25;12.90;;;6.40;;
70967;SDS011;58629;48.808;8.820;2022-12-07T00:03:55;11.40;;;6.10;;
70967;SDS011;58629;48.808;8.820;2022-12-07T00:06:25;14.45;;;6.63;;
70967;SDS011;58629;48.808;8.820;2022-12-07T00:08:51;12.00;;;6.20;;
70967;SDS011;58629;48.808;8.820;2022-12-07T00:11:19;12.37;;;6.60;;
70967;SDS011;58629;48.808;8.820;2022-12-07T00:13:47;12.35;;;5.68;;
70967;SDS011;58629;48.808;8.820;2022-12-07T00:16:16;11.60;;;5.63;;
70967;SDS011;58629;48.808;8.820;2022-12-07T00:18:43;10.77;;;5.88;;
70967;SDS011;58629;48.808;8.820;2022-12-07T00:21:13;10.20;;;5.73;;
70967;SDS011;58629;48.808;8.820;2022-12-07T00:23:41;11.82;;;5.43;;
70967;SDS011;58629;48.808;8.820;2022-12-07T00:26:11;10.07;;;5.38;;
70967;SDS011;58629;48.808;8.820;2022-12-07T00:28:48;9.65;;;5.15;;
70967;SDS011;58629;48.808;8.820;2022-12-07T00:31:16;10.63;;;5.65;;
70967;SDS011;58629;48.808;8.820;2022-12-07T00:33:42;8.27;;;4.30;;
70967;SDS011;58629;48.808;8.820;2022-12-07T00:36:11;8.45;;;4.57;;
70967;SDS011;58629;48.808;8.820;2022-12-07T00:38:39;9.00;;;4.75;;
70967;SDS011;58629;48.808;8.820;2022-12-07T00:41:06;10.85;;;5.28;;
70967;SDS011;58629;48.808;8.820;2022-12-07T00:43:35;8.93;;;4.95;;
70967;SDS011;58629;48.808;8.820;2022-12-07T00:46:00;9.60;;;4.60;;
70967;SDS011;58629;48.808;8.820;2022-12-07T00:48:25;7.47;;;4.37;;
70967;SDS011;58629;48.808;8.820;2022-12-07T00:50:51;8.83;;;4.60;;
70967;SDS011;58629;48.808;8.820;2022-12-07T00:53:16;9.97;;;5.00;;
70967;SDS011;58629;48.808;8.820;2022-12-07T00:55:42;10.40;;;5.27;;
70967;SDS011;58629;48.808;8.820;2022-12-07T00:58:07;9.80;;;5.18;;
70967;SDS011;58629;48.808;8.820;2022-12-07T01:00:33;11.07;;;5.63;;
70967;SDS011;58629;48.808;8.820;2022-12-07T01:03:00;11.15;;;5.63;;
70967;SDS011;58629;48.808;8.820;2022-12-07T01:05:26;10.33;;;5.57;;
70967;SDS011;58629;48.808;8.820;2022-12-07T01:07:51;12.03;;;5.63;;
70967;SDS011;58629;48.808;8.820;2022-12-07T01:10:16;11.73;;;6.10;;
70967;SDS011;58629;48.808;8.820;2022-12-07T01:12:41;11.23;;;5.90;;
70967;SDS011;58629;48.808;8.820;2022-12-07T01:15:07;12.80;;;5.77;;
70967;SDS011;58629;48.808;8.820;2022-12-07T01:17:33;12.70;;;6.10;;
70967;SDS011;58629;48.808;8.820;2022-12-07T01:19:59;12.27;;;6.20;;
70967;SDS011;58629;48.808;8.820;2022-12-07T01:22:24;12.00;;;6.20;;
70967;SDS011;58629;48.808;8.820;2022-12-07T01:24:50;11.90;;;5.80;;
70967;SDS011;58629;48.808;8.820;2022-12-07T01:27:15;12.30;;;5.80;;
70967;SDS011;58629;48.808;8.820;2022-12-07T01:29:40;10.93;;;5.63;;
70967;SDS011;58629;48.808;8.820;2022-12-07T01:32:06;13.30;;;5.73;;
70967;SDS011;58629;48.808;8.820;2022-12-07T01:34:31;12.50;;;5.70;;
70967;SDS011;58629;48.808;8.820;2022-12-07T01:36:56;12.25;;;5.90;;
70967;SDS011;58629;48.808;8.820;2022-12-07T01:39:22;12.13;;;6.07;;
70967;SDS011;58629;48.808;8.820;2022-12-07T01:41:47;13.47;;;6.30;;
70967;SDS011;58629;48.808;8.820;2022-12-07T01:46:59;11.88;;;5.93;;
70967;SDS011;58629;48.808;8.820;2022-12-07T01:52:20;11.07;;;5.68;;
70967;SDS011;58629;48.808;8.820;2022-12-07T01:55:02;13.80;;;6.07;;
70967;SDS011;58629;48.808;8.820;2022-12-07T01:57:31;12.52;;;5.60;;
70967;SDS011;58629;48.808;8.820;2022-12-07T01:59:59;12.93;;;5.90;;
70967;SDS011;58629;48.808;8.820;2022-12-07T02:02:32;12.40;;;5.78;;
70967;SDS011;58629;48.808;8.820;2022-12-07T02:05:01;13.55;;;5.90;;
70967;SDS011;58629;48.808;8.820;2022-12-07T02:07:28;12.07;;;6.00;;
70967;SDS011;58629;48.808;8.820;2022-12-07T02:09:54;13.85;;;6.50;;
70967;SDS011;58629;48.808;8.820;2022-12-07T02:12:20;12.93;;;6.23;;
70967;SDS011;58629;48.808;8.820;2022-12-07T02:14:47;14.15;;;5.90;;
70967;SDS011;58629;48.808;8.820;2022-12-07T02:17:15;13.48;;;6.25;;
70967;SDS011;58629;48.808;8.820;2022-12-07T02:20:01;12.35;;;5.90;;
70967;SDS011;58629;48.808;8.820;2022-12-07T02:22:48;11.70;;;5.70;;
70967;SDS011;58629;48.808;8.820;2022-12-07T02:30:51;12.23;;;5.88;;
70967;SDS011;58629;48.808;8.820;2022-12-07T02:33:23;13.02;;;5.75;;
70967;SDS011;58629;48.808;8.820;2022-12-07T02:36:01;11.40;;;5.63;;
70967;SDS011;58629;48.808;8.820;2022-12-07T02:38:35;11.63;;;5.43;;
70967;SDS011;58629;48.808;8.820;2022-12-07T02:41:08;11.55;;;5.47;;
70967;SDS011;58629;48.808;8.820;2022-12-07T02:43:45;13.02;;;5.70;;
70967;SDS011;58629;48.808;8.820;2022-12-07T02:46:17;10.82;;;5.18;;
70967;SDS011;58629;48.808;8.820;2022-12-07T02:48:47;11.93;;;5.40;;
70967;SDS011;58629;48.808;8.820;2022-12-07T02:51:14;10.48;;;4.85;;
70967;SDS011;58629;48.808;8.820;2022-12-07T02:53:43;9.20;;;4.20;;
70967;SDS011;58629;48.808;8.820;2022-12-07T03:01:30;6.40;;;3.20;;
70967;SDS011;58629;48.808;8.820;2022-12-07T03:04:24;7.35;;;3.60;;
70967;SDS011;58629;48.808;8.820;2022-12-07T03:12:32;5.85;;;2.92;;
70967;SDS011;58629;48.808;8.820;2022-12-07T03:15:11;6.07;;;3.30;;
70967;SDS011;58629;48.808;8.820;2022-12-07T03:17:40;7.00;;;3.55;;
70967;SDS011;58629;48.808;8.820;2022-12-07T03:20:11;5.97;;;3.10;;
70967;SDS011;58629;48.808;8.820;2022-12-07T03:22:40;8.85;;;4.18;;
70967;SDS011;58629;48.808;8.820;2022-12-07T03:25:09;7.65;;;3.72;;
70967;SDS011;58629;48.808;8.820;2022-12-07T03:27:39;6.43;;;3.33;;
70967;SDS011;58629;48.808;8.820;2022-12-07T03:30:10;6.63;;;3.50;;
70967;SDS011;58629;48.808;8.820;2022-12-07T03:35:25;5.72;;;2.78;;
70967;SDS011;58629;48.808;8.820;2022-12-07T03:40:59;5.63;;;2.67;;
70967;SDS011;58629;48.808;8.820;2022-12-07T03:43:29;5.10;;;2.50;;
70967;SDS011;58629;48.808;8.820;2022-12-07T03:48:56;7.63;;;3.78;;
70967;SDS011;58629;48.808;8.820;2022-12-07T03:51:31;5.95;;;3.13;;
70967;SDS011;58629;48.808;8.820;2022-12-07T03:56:45;6.13;;;3.10;;
70967;SDS011;58629;48.808;8.820;2022-12-07T03:59:12;5.15;;;2.90;;
70967;SDS011;58629;48.808;8.820;2022-12-07T04:01:41;5.38;;;2.70;;
70967;SDS011;58629;48.808;8.820;2022-12-07T04:04:07;5.43;;;2.70;;
70967;SDS011;58629;48.808;8.820;2022-12-07T04:06:32;5.07;;;2.30;;
70967;SDS011;58629;48.808;8.820;2022-12-07T04:08:57;4.00;;;2.07;;
70967;SDS011;58629;48.808;8.820;2022-12-07T04:11:23;5.87;;;2.80;;
70967;SDS011;58629;48.808;8.820;2022-12-07T04:13:48;5.07;;;2.67;;
70967;SDS011;58629;48.808;8.820;2022-12-07T04:16:32;6.07;;;2.77;;
70967;SDS011;58629;48.808;8.820;2022-12-07T04:18:57;5.20;;;3.05;;
70967;SDS011;58629;48.808;8.820;2022-12-07T04:21:22;5.38;;;2.80;;
70967;SDS011;58629;48.808;8.820;2022-12-07T04:23:48;7.23;;;3.37;;
70967;SDS011;58629;48.808;8.820;2022-12-07T04:26:13;8.17;;;4.07;;
70967;SDS011;58629;48.808;8.820;2022-12-07T04:28:38;9.17;;;4.47;;
70967;SDS011;58629;48.808;8.820;2022-12-07T04:31:03;7.80;;;3.40;;
70967;SDS011;58629;48.808;8.820;2022-12-07T04:33:29;6.27;;;3.27;;
70967;SDS011;58629;48.808;8.820;2022-12-07T04:35:54;6.77;;;3.37;;
70967;SDS011;58629;48.808;8.820;2022-12-07T04:38:19;6.03;;;3.00;;
70967;SDS011;58629;48.808;8.820;2022-12-07T04:40:44;6.10;;;3.40;;
70967;SDS011;58629;48.808;8.820;2022-12-07T04:43:10;5.60;;;2.80;;
70967;SDS011;58629;48.808;8.820;2022-12-07T04:45:35;6.10;;;2.90;;
70967;SDS011;58629;48.808;8.820;2022-12-07T04:48:00;5.63;;;2.90;;
70967;SDS011;58629;48.808;8.820;2022-12-07T04:50:25;5.13;;;2.90;;
70967;SDS011;58629;48.808;8.820;2022-12-07T04:52:51;4.40;;;2.30;;
70967;SDS011;58629;48.808;8.820;2022-12-07T04:55:16;5.30;;;2.90;;
70967;SDS011;58629;48.808;8.820;2022-12-07T04:57:41;6.13;;;2.97;;
70967;SDS011;58629;48.808;8.820;2022-12-07T05:00:07;4.73;;;2.47;;
70967;SDS011;58629;48.808;8.820;2022-12-07T05:02:32;5.07;;;2.30;;
70967;SDS011;58629;48.808;8.820;2022-12-07T05:04:57;4.25;;;2.50;;
70967;SDS011;58629;48.808;8.820;2022-12-07T05:07:23;4.65;;;2.35;;
70967;SDS011;58629;48.808;8.820;2022-12-07T05:09:48;5.50;;;2.30;;
70967;SDS011;58629;48.808;8.820;2022-12-07T05:12:13;4.72;;;2.47;;
70967;SDS011;58629;48.808;8.820;2022-12-07T05:14:38;4.13;;;2.45;;
70967;SDS011;58629;48.808;8.820;2022-12-07T05:17:04;3.93;;;2.10;;
70967;SDS011;58629;48.808;8.820;2022-12-07T05:19:29;4.00;;;2.20;;
70967;SDS011;58629;48.808;8.820;2022-12-07T05:21:54;3.40;;;1.70;;
70967;SDS011;58629;48.808;8.820;2022-12-07T05:24:20;5.30;;;2.30;;
70967;SDS011;58629;48.808;8.820;2022-12-07T05:26:45;4.63;;;2.40;;
70967;SDS011;58629;48.808;8.820;2022-12-07T05:29:11;3.53;;;1.77;;
70967;SDS011;58629;48.808;8.820;2022-12-07T05:31:38;3.92;;;1.75;;
70967;SDS011;58629;48.808;8.820;2022-12-07T05:34:03;3.80;;;1.70;;
70967;SDS011;58629;48.808;8.820;2022-12-07T05:36:29;3.77;;;1.80;;
70967;SDS011;58629;48.808;8.820;2022-12-07T05:38:56;3.92;;;2.03;;
70967;SDS011;58629;48.808;8.820;2022-12-07T05:41:22;5.03;;;2.60;;
70967;SDS011;58629;48.808;8.820;2022-12-07T05:44:06;3.53;;;1.88;;
70967;SDS011;58629;48.808;8.820;2022-12-07T05:46:31;5.90;;;2.53;;
70967;SDS011;58629;48.808;8.820;2022-12-07T05:48:57;3.42;;;1.70;;
70967;SDS011;58629;48.808;8.820;2022-12-07T05:51:22;3.20;;;1.40;;
70967;SDS011;58629;48.808;8.820;2022-12-07T05:53:48;3.50;;;1.43;;
70967;SDS011;58629;48.808;8.820;2022-12-07T05:56:13;3.23;;;1.50;;
70967;SDS011;58629;48.808;8.820;2022-12-07T05:58:38;3.50;;;1.73;;
70967;SDS011;58629;48.808;8.820;2022-12-07T06:01:22;3.00;;;1.42;;
70967;SDS011;58629;48.808;8.820;2022-12-07T06:03:47;4.27;;;2.03;;
70967;SDS011;58629;48.808;8.820;2022-12-07T06:06:12;3.53;;;1.60;;
70967;SDS011;58629;48.808;8.820;2022-12-07T06:08:38;4.10;;;2.00;;
70967;SDS011;58629;48.808;8.820;2022-12-07T06:11:03;4.57;;;2.13;;
70967;SDS011;58629;48.808;8.820;2022-12-07T06:13:47;4.43;;;2.35;;
70967;SDS011;58629;48.808;8.820;2022-12-07T06:16:12;4.20;;;2.00;;
70967;SDS011;58629;48.808;8.820;2022-12-07T06:18:37;4.07;;;1.93;;
70967;SDS011;58629;48.808;8.820;2022-12-07T06:21:03;4.23;;;2.10;;
70967;SDS011;58629;48.808;8.820;2022-12-07T06:23:28;3.00;;;1.73;;
70967;SDS011;58629;48.808;8.820;2022-12-07T06:25:53;3.00;;;1.70;;
70967;SDS011;58629;48.808;8.820;2022-12-07T06:28:18;4.77;;;2.10;;
70967;SDS011;58629;48.808;8.820;2022-12-07T06:30:44;3.97;;;2.20;;
70967;SDS011;58629;48.808;8.820;2022-12-07T06:33:09;4.93;;;2.87;;
70967;SDS011;58629;48.808;8.820;2022-12-07T06:35:34;4.95;;;2.67;;
70967;SDS011;58629;48.808;8.820;2022-12-07T06:38:00;5.45;;;2.83;;
70967;SDS011;58629;48.808;8.820;2022-12-07T06:40:25;5.73;;;2.50;;
70967;SDS011;58629;48.808;8.820;2022-12-07T06:42:50;5.50;;;2.33;;
70967;SDS011;58629;48.808;8.820;2022-12-07T06:45:16;3.93;;;2.07;;
70967;SDS011;58629;48.808;8.820;2022-12-07T06:47:41;3.80;;;2.10;;
70967;SDS011;58629;48.808;8.820;2022-12-07T06:50:06;3.97;;;1.97;;
70967;SDS011;58629;48.808;8.820;2022-12-07T06:52:32;5.18;;;2.90;;
70967;SDS011;58629;48.808;8.820;2022-12-07T06:54:58;4.70;;;2.90;;
70967;SDS011;58629;48.808;8.820;2022-12-07T06:57:23;4.43;;;2.30;;
70967;SDS011;58629;48.808;8.820;2022-12-07T06:59:49;4.63;;;2.05;;
70967;SDS011;58629;48.808;8.820;2022-12-07T07:02:14;3.83;;;2.10;;
70967;SDS011;58629;48.808;8.820;2022-12-07T07:04:39;4.15;;;2.00;;
70967;SDS011;58629;48.808;8.820;2022-12-07T07:07:04;4.03;;;2.28;;
70967;SDS011;58629;48.808;8.820;2022-12-07T07:09:30;3.87;;;1.93;;
70967;SDS011;58629;48.808;8.820;2022-12-07T07:11:55;4.90;;;2.47;;
70967;SDS011;58629;48.808;8.820;2022-12-07T07:14:20;5.40;;;2.40;;
70967;SDS011;58629;48.808;8.820;2022-12-07T07:16:46;5.95;;;2.53;;
70967;SDS011;58629;48.808;8.820;2022-12-07T07:19:12;4.47;;;2.30;;
70967;SDS011;58629;48.808;8.820;2022-12-07T07:21:37;5.03;;;2.20;;
70967;SDS011;58629;48.808;8.820;2022-12-07T07:24:02;4.03;;;1.77;;
70967;SDS011;58629;48.808;8.820;2022-12-07T07:26:27;8.87;;;5.43;;
70967;SDS011;58629;48.808;8.820;2022-12-07T07:28:53;6.00;;;2.50;;
70967;SDS011;58629;48.808;8.820;2022-12-07T07:31:18;3.27;;;1.80;;
70967;SDS011;58629;48.808;8.820;2022-12-07T07:33:44;4.40;;;2.17;;
70967;SDS011;58629;48.808;8.820;2022-12-07T07:36:11;3.85;;;2.00;;
70967;SDS011;58629;48.808;8.820;2022-12-07T07:38:36;4.20;;;2.00;;
70967;SDS011;58629;48.808;8.820;2022-12-07T07:41:01;3.50;;;1.87;;
70967;SDS011;58629;48.808;8.820;2022-12-07T07:43:26;4.43;;;1.93;;
70967;SDS011;58629;48.808;8.820;2022-12-07T07:45:52;3.73;;;2.10;;
70967;SDS011;58629;48.808;8.820;2022-12-07T07:48:17;4.03;;;1.90;;
70967;SDS011;58629;48.808;8.820;2022-12-07T07:50:42;4.17;;;1.77;;
70967;SDS011;58629;48.808;8.820;2022-12-07T07:53:07;3.53;;;1.83;;
70967;SDS011;58629;48.808;8.820;2022-12-07T07:55:33;3.17;;;1.63;;
70967;SDS011;58629;48.808;8.820;2022-12-07T07:57:58;3.07;;;1.57;;
70967;SDS011;58629;48.808;8.820;2022-12-07T08:00:23;2.90;;;1.50;;
70967;SDS011;58629;48.808;8.820;2022-12-07T08:02:49;2.67;;;1.47;;
70967;SDS011;58629;48.808;8.820;2022-12-07T08:05:14;2.57;;;1.27;;
70967;SDS011;58629;48.808;8.820;2022-12-07T08:07:40;3.97;;;1.65;;
70967;SDS011;58629;48.808;8.820;2022-12-07T08:10:05;2.70;;;1.70;;
70967;SDS011;58629;48.808;8.820;2022-12-07T08:12:35;2.63;;;1.42;;
70967;SDS011;58629;48.808;8.820;2022-12-07T08:15:02;3.47;;;1.53;;
70967;SDS011;58629;48.808;8.820;2022-12-07T08:17:27;3.25;;;1.50;;
70967;SDS011;58629;48.808;8.820;2022-12-07T08:19:52;3.23;;;1.67;;
70967;SDS011;58629;48.808;8.820;2022-12-07T08:22:18;3.30;;;1.60;;
70967;SDS011;58629;48.808;8.820;2022-12-07T08:24:43;3.23;;;1.50;;
70967;SDS011;58629;48.808;8.820;2022-12-07T08:27:09;3.33;;;1.73;;
70967;SDS011;58629;48.808;8.820;2022-12-07T08:29:34;2.92;;;1.40;;
70967;SDS011;58629;48.808;8.820;2022-12-07T08:32:00;4.27;;;1.60;;
70967;SDS011;58629;48.808;8.820;2022-12-07T08:34:26;4.20;;;1.60;;
70967;SDS011;58629;48.808;8.820;2022-12-07T08:36:52;3.28;;;1.65;;
70967;SDS011;58629;48.808;8.820;2022-12-07T08:39:17;3.53;;;1.83;;
70967;SDS011;58629;48.808;8.820;2022-12-07T08:41:42;3.27;;;1.60;;
70967;SDS011;58629;48.808;8.820;2022-12-07T08:44:07;3.07;;;1.60;;
70967;SDS011;58629;48.808;8.820;2022-12-07T08:46:34;3.87;;;1.80;;
70967;SDS011;58629;48.808;8.820;2022-12-07T08:49:05;3.55;;;1.85;;
70967;SDS011;58629;48.808;8.820;2022-12-07T08:51:34;3.47;;;1.75;;
70967;SDS011;58629;48.808;8.820;2022-12-07T08:54:00;2.80;;;1.40;;
70967;SDS011;58629;48.808;8.820;2022-12-07T08:56:28;3.10;;;1.67;;
70967;SDS011;58629;48.808;8.820;2022-12-07T08:58:54;4.83;;;1.70;;
70967;SDS011;58629;48.808;8.820;2022-12-07T09:01:19;3.50;;;1.55;;
70967;SDS011;58629;48.808;8.820;2022-12-07T09:03:44;2.72;;;1.40;;
70967;SDS011;58629;48.808;8.820;2022-12-07T09:06:10;2.80;;;1.55;;
70967;SDS011;58629;48.808;8.820;2022-12-07T09:08:40;3.22;;;1.58;;
70967;SDS011;58629;48.808;8.820;2022-12-07T09:11:08;2.83;;;1.20;;
70967;SDS011;58629;48.808;8.820;2022-12-07T09:13:33;2.60;;;1.40;;
70967;SDS011;58629;48.808;8.820;2022-12-07T09:15:58;2.33;;;0.90;;
70967;SDS011;58629;48.808;8.820;2022-12-07T09:18:24;2.30;;;1.20;;
70967;SDS011;58629;48.808;8.820;2022-12-07T09:20:49;1.73;;;1.00;;
70967;SDS011;58629;48.808;8.820;2022-12-07T09:23:15;3.70;;;1.60;;
70967;SDS011;58629;48.808;8.820;2022-12-07T09:25:40;2.97;;;1.50;;
70967;SDS011;58629;48.808;8.820;2022-12-07T09:28:06;2.77;;;1.40;;
70967;SDS011;58629;48.808;8.820;2022-12-07T09:30:31;3.67;;;1.50;;
70967;SDS011;58629;48.808;8.820;2022-12-07T09:32:56;3.23;;;1.30;;
70967;SDS011;58629;48.808;8.820;2022-12-07T09:35:22;2.80;;;1.50;;
70967;SDS011;58629;48.808;8.820;2022-12-07T09:37:48;3.45;;;1.58;;
70967;SDS011;58629;48.808;8.820;2022-12-07T09:40:14;3.00;;;1.77;;
70967;SDS011;58629;48.808;8.820;2022-12-07T09:42:42;2.30;;;1.40;;
70967;SDS011;58629;48.808;8.820;2022-12-07T09:45:16;2.93;;;1.80;;
70967;SDS011;58629;48.808;8.820;2022-12-07T09:48:03;2.30;;;1.35;;
70967;SDS011;58629;48.808;8.820;2022-12-07T09:50:30;2.13;;;1.30;;
70967;SDS011;58629;48.808;8.820;2022-12-07T09:53:03;2.10;;;1.10;;
70967;SDS011;58629;48.808;8.820;2022-12-07T09:55:37;2.93;;;1.50;;
70967;SDS011;58629;48.808;8.820;2022-12-07T09:58:05;1.65;;;1.10;;
70967;SDS011;58629;48.808;8.820;2022-12-07T10:00:31;2.65;;;1.20;;
70967;SDS011;58629;48.808;8.820;2022-12-07T10:08:02;5.20;;;2.70;;
70967;SDS011;58629;48.808;8.820;2022-12-07T10:10:31;3.80;;;2.20;;
70967;SDS011;58629;48.808;8.820;2022-12-07T10:13:06;4.00;;;2.20;;
70967;SDS011;58629;48.808;8.820;2022-12-07T10:21:00;3.50;;;2.42;;
70967;SDS011;58629;48.808;8.820;2022-12-07T10:23:28;4.28;;;2.90;;
70967;SDS011;58629;48.808;8.820;2022-12-07T10:25:54;3.33;;;1.20;;
70967;SDS011;58629;48.808;8.820;2022-12-07T10:28:20;2.03;;;1.08;;
70967;SDS011;58629;48.808;8.820;2022-12-07T10:35:56;1.30;;;0.70;;
70967;SDS011;58629;48.808;8.820;2022-12-07T10:38:22;1.48;;;0.80;;
70967;SDS011;58629;48.808;8.820;2022-12-07T10:40:54;1.83;;;1.10;;
70967;SDS011;58629;48.808;8.820;2022-12-07T10:43:28;2.03;;;1.15;;
70967;SDS011;58629;48.808;8.820;2022-12-07T10:45:58;1.90;;;0.97;;
70967;SDS011;58629;48.808;8.820;2022-12-07T10:48:59;2.10;;;1.00;;
70967;SDS011;58629;48.808;8.820;2022-12-07T10:51:43;2.13;;;1.13;;
70967;SDS011;58629;48.808;8.820;2022-12-07T10:56:58;2.45;;;1.40;;
70967;SDS011;58629;48.808;8.820;2022-12-07T10:59:49;2.78;;;1.33;;
70967;SDS011;58629;48.808;8.820;2022-12-07T11:07:50;3.10;;;1.67;;
70967;SDS011;58629;48.808;8.820;2022-12-07T11:18:37;4.97;;;2.43;;
70967;SDS011;58629;48.808;8.820;2022-12-07T11:24:01;4.18;;;2.10;;
70967;SDS011;58629;48.808;8.820;2022-12-07T11:34:44;4.18;;;2.42;;
70967;SDS011;58629;48.808;8.820;2022-12-07T11:37:30;4.60;;;2.28;;
70967;SDS011;58629;48.808;8.820;2022-12-07T11:39:59;4.88;;;2.42;;
70967;SDS011;58629;48.808;8.820;2022-12-07T11:42:29;5.00;;;2.50;;
70967;SDS011;58629;48.808;8.820;2022-12-07T11:45:12;3.78;;;2.15;;
70967;SDS011;58629;48.808;8.820;2022-12-07T11:47:48;4.60;;;2.37;;
70967;SDS011;58629;48.808;8.820;2022-12-07T11:55:50;4.70;;;2.40;;
70967;SDS011;58629;48.808;8.820;2022-12-07T11:58:37;4.97;;;2.50;;
70967;SDS011;58629;48.808;8.820;2022-12-07T12:04:25;4.73;;;2.50;;
70967;SDS011;58629;48.808;8.820;2022-12-07T12:06:40;4.80;;;2.58;;
70967;SDS011;58629;48.808;8.820;2022-12-07T12:22:40;5.05;;;2.50;;
70967;SDS011;58629;48.808;8.820;2022-12-07T12:25:22;4.68;;;2.55;;
70967;SDS011;58629;48.808;8.820;2022-12-07T12:27:50;5.50;;;2.63;;
70967;SDS011;58629;48.808;8.820;2022-12-07T12:33:03;5.88;;;2.70;;
70967;SDS011;58629;48.808;8.820;2022-12-07T12:35:32;4.78;;;2.75;;
70967;SDS011;58629;48.808;8.820;2022-12-07T12:40:55;5.63;;;2.85;;
70967;SDS011;58629;48.808;8.820;2022-12-07T12:51:43;5.32;;;2.78;;
70967;SDS011;58629;48.808;8.820;2022-12-07T12:57:05;7.20;;;2.90;;
70967;SDS011;58629;48.808;8.820;2022-12-07T13:02:24;5.43;;;2.50;;
70967;SDS011;58629;48.808;8.820;2022-12-07T13:18:22;5.82;;;2.63;;
70967;SDS011;58629;48.808;8.820;2022-12-07T13:20:52;6.43;;;2.78;;
70967;SDS011;58629;48.808;8.820;2022-12-07T13:23:19;7.63;;;3.30;;
70967;SDS011;58629;48.808;8.820;2022-12-07T13:25:51;5.15;;;2.25;;
70967;SDS011;58629;48.808;8.820;2022-12-07T13:28:20;4.63;;;2.60;;
70967;SDS011;58629;48.808;8.820;2022-12-07T13:30:59;5.75;;;2.97;;
70967;SDS011;58629;48.808;8.820;2022-12-07T13:33:34;7.18;;;3.03;;
70967;SDS011;58629;48.808;8.820;2022-12-07T13:36:00;5.57;;;2.67;;
70967;SDS011;58629;48.808;8.820;2022-12-07T13:38:28;6.90;;;3.00;;
70967;SDS011;58629;48.808;8.820;2022-12-07T13:41:00;6.00;;;3.10;;
70967;SDS011;58629;48.808;8.820;2022-12-07T13:43:25;6.03;;;3.17;;
70967;SDS011;58629;48.808;8.820;2022-12-07T13:45:56;6.73;;;3.50;;
70967;SDS011;58629;48.808;8.820;2022-12-07T13:48:44;7.22;;;3.40;;
70967;SDS011;58629;48.808;8.820;2022-12-07T13:51:18;7.47;;;3.67;;
70967;SDS011;58629;48.808;8.820;2022-12-07T13:53:51;8.80;;;3.53;;
70967;SDS011;58629;48.808;8.820;2022-12-07T13:56:20;7.18;;;3.70;;
70967;SDS011;58629;48.808;8.820;2022-12-07T13:58:47;6.35;;;3.08;;
70967;SDS011;58629;48.808;8.820;2022-12-07T14:01:12;6.57;;;3.60;;
70967;SDS011;58629;48.808;8.820;2022-12-07T14:03:38;7.00;;;3.60;;
70967;SDS011;58629;48.808;8.820;2022-12-07T14:06:06;8.27;;;3.70;;
70967;SDS011;58629;48.808;8.820;2022-12-07T14:08:40;7.47;;;3.65;;
70967;SDS011;58629;48.808;8.820;2022-12-07T14:11:06;6.18;;;3.45;;
70967;SDS011;58629;48.808;8.820;2022-12-07T14:13:38;6.77;;;3.00;;
70967;SDS011;58629;48.808;8.820;2022-12-07T14:18:59;7.00;;;3.70;;
70967;SDS011;58629;48.808;8.820;2022-12-07T14:21:27;6.95;;;3.30;;
70967;SDS011;58629;48.808;8.820;2022-12-07T14:26:43;6.97;;;3.50;;
70967;SDS011;58629;48.808;8.820;2022-12-07T14:31:49;7.20;;;3.65;;
70967;SDS011;58629;48.808;8.820;2022-12-07T14:34:16;6.90;;;3.60;;
70967;SDS011;58629;48.808;8.820;2022-12-07T14:36:42;9.23;;;4.17;;
70967;SDS011;58629;48.808;8.820;2022-12-07T14:39:07;10.33;;;4.40;;
70967;SDS011;58629;48.808;8.820;2022-12-07T14:41:32;8.83;;;4.57;;
70967;SDS011;58629;48.808;8.820;2022-12-07T14:44:16;11.70;;;5.00;;
70967;SDS011;58629;48.808;8.820;2022-12-07T14:46:43;9.48;;;4.78;;
70967;SDS011;58629;48.808;8.820;2022-12-07T14:49:08;10.67;;;4.77;;
70967;SDS011;58629;48.808;8.820;2022-12-07T14:51:33;10.57;;;5.07;;
70967;SDS011;58629;48.808;8.820;2022-12-07T14:54:03;10.37;;;5.10;;
70967;SDS011;58629;48.808;8.820;2022-12-07T14:56:31;9.57;;;4.70;;
70967;SDS011;58629;48.808;8.820;2022-12-07T14:58:56;11.33;;;4.83;;
70967;SDS011;58629;48.808;8.820;2022-12-07T15:01:22;11.30;;;5.18;;
70967;SDS011;58629;48.808;8.820;2022-12-07T15:03:47;10.20;;;4.60;;
70967;SDS011;58629;48.808;8.820;2022-12-07T15:06:13;10.90;;;4.80;;
70967;SDS011;58629;48.808;8.820;2022-12-07T15:08:40;9.77;;;4.32;;
70967;SDS011;58629;48.808;8.820;2022-12-07T15:11:05;8.83;;;4.50;;
70967;SDS011;58629;48.808;8.820;2022-12-07T15:13:32;9.23;;;4.35;;
70967;SDS011;58629;48.808;8.820;2022-12-07T15:16:17;9.90;;;4.67;;
70967;SDS011;58629;48.808;8.820;2022-12-07T15:18:44;10.23;;;4.35;;
70967;SDS011;58629;48.808;8.820;2022-12-07T15:21:12;8.53;;;4.23;;
70967;SDS011;58629;48.808;8.820;2022-12-07T15:23:39;10.07;;;4.43;;
70967;SDS011;58629;48.808;8.820;2022-12-07T15:26:04;9.70;;;4.73;;
70967;SDS011;58629;48.808;8.820;2022-12-07T15:28:29;10.57;;;4.60;;
70967;SDS011;58629;48.808;8.820;2022-12-07T15:30:55;10.53;;;4.53;;
70967;SDS011;58629;48.808;8.820;2022-12-07T15:33:20;10.23;;;5.10;;
70967;SDS011;58629;48.808;8.820;2022-12-07T15:35:45;10.00;;;4.50;;
70967;SDS011;58629;48.808;8.820;2022-12-07T15:38:11;10.27;;;4.70;;
70967;SDS011;58629;48.808;8.820;2022-12-07T15:40:36;7.88;;;4.32;;
70967;SDS011;58629;48.808;8.820;2022-12-07T15:43:02;10.53;;;4.70;;
70967;SDS011;58629;48.808;8.820;2022-12-07T15:45:28;10.80;;;4.78;;
70967;SDS011;58629;48.808;8.820;2022-12-07T15:47:53;10.53;;;4.77;;
70967;SDS011;58629;48.808;8.820;2022-12-07T15:50:20;10.57;;;4.80;;
70967;SDS011;58629;48.808;8.820;2022-12-07T15:52:46;10.73;;;4.78;;
70967;SDS011;58629;48.808;8.820;2022-12-07T15:55:11;8.85;;;4.43;;
70967;SDS011;58629;48.808;8.820;2022-12-07T15:57:37;9.63;;;4.53;;
70967;SDS011;58629;48.808;8.820;2022-12-07T16:00:03;9.03;;;4.37;;
70967;SDS011;58629;48.808;8.820;2022-12-07T16:02:33;11.27;;;4.85;;
70967;SDS011;58629;48.808;8.820;2022-12-07T16:04:58;11.03;;;5.00;;
70967;SDS011;58629;48.808;8.820;2022-12-07T16:07:24;9.00;;;4.70;;
70967;SDS011;58629;48.808;8.820;2022-12-07T16:09:49;10.70;;;4.63;;
70967;SDS011;58629;48.808;8.820;2022-12-07T16:12:15;10.40;;;5.07;;
70967;SDS011;58629;48.808;8.820;2022-12-07T16:14:40;11.20;;;4.90;;
70967;SDS011;58629;48.808;8.820;2022-12-07T16:17:07;10.60;;;5.40;;
70967;SDS011;58629;48.808;8.820;2022-12-07T16:19:33;12.30;;;5.60;;
70967;SDS011;58629;48.808;8.820;2022-12-07T16:22:00;12.38;;;5.68;;
70967;SDS011;58629;48.808;8.820;2022-12-07T16:24:26;12.15;;;5.65;;
70967;SDS011;58629;48.808;8.820;2022-12-07T16:26:51;13.53;;;6.43;;
70967;SDS011;58629;48.808;8.820;2022-12-07T16:29:17;13.63;;;5.95;;
70967;SDS011;58629;48.808;8.820;2022-12-07T16:31:44;13.90;;;6.40;;
70967;SDS011;58629;48.808;8.820;2022-12-07T16:34:10;16.10;;;6.63;;
70967;SDS011;58629;48.808;8.820;2022-12-07T16:36:35;14.67;;;6.83;;
70967;SDS011;58629;48.808;8.820;2022-12-07T16:39:01;16.63;;;7.10;;
70967;SDS011;58629;48.808;8.820;2022-12-07T16:41:27;15.50;;;7.22;;
70967;SDS011;58629;48.808;8.820;2022-12-07T16:43:52;15.93;;;6.93;;
70967;SDS011;58629;48.808;8.820;2022-12-07T16:46:18;17.03;;;7.23;;
70967;SDS011;58629;48.808;8.820;2022-12-07T16:48:43;14.20;;;6.90;;
70967;SDS011;58629;48.808;8.820;2022-12-07T16:51:10;13.87;;;6.67;;
70967;SDS011;58629;48.808;8.820;2022-12-07T16:53:40;15.80;;;7.05;;
70967;SDS011;58629;48.808;8.820;2022-12-07T16:56:14;15.45;;;7.35;;
70967;SDS011;58629;48.808;8.820;2022-12-07T16:58:41;14.80;;;6.95;;
70967;SDS011;58629;48.808;8.820;2022-12-07T17:01:11;16.83;;;7.03;;
70967;SDS011;58629;48.808;8.820;2022-12-07T17:03:37;13.47;;;6.70;;
70967;SDS011;58629;48.808;8.820;2022-12-07T17:06:02;15.73;;;7.13;;
70967;SDS011;58629;48.808;8.820;2022-12-07T17:08:28;14.93;;;6.33;;